createdAt,value
2018-01-22T00:00:00.000Z,98842
2018-01-22T00:05:00.000Z,98845
2018-01-22T00:10:00.000Z,98830
2018-01-22T00:15:00.000Z,98819
2018-01-22T00:20:00.000Z,98820
2018-01-22T00:25:00.000Z,98831
2018-01-22T00:30:00.000Z,98824
2018-01-22T00:35:00.000Z,98831
2018-01-22T00:40:00.000Z,98811
2018-01-22T00:45:00.000Z,98821
2018-01-22T00:50:00.000Z,98826
2018-01-22T00:55:00.000Z,98827
2018-01-22T01:00:00.000Z,98833
2018-01-22T01:05:00.000Z,98824
2018-01-22T01:10:00.000Z,98845
2018-01-22T01:15:00.000Z,98843
2018-01-22T01:20:00.000Z,98855
2018-01-22T01:25:00.000Z,98852
2018-01-22T01:30:00.000Z,98854
2018-01-22T01:35:00.000Z,98853
2018-01-22T01:40:00.000Z,98866
2018-01-22T01:45:00.000Z,98870
2018-01-22T01:50:00.000Z,98875
2018-01-22T01:55:00.000Z,98870
2018-01-22T02:00:00.000Z,98864
2018-01-22T02:05:00.000Z,98854
2018-01-22T02:10:00.000Z,98842
2018-01-22T02:15:00.000Z,98827
2018-01-22T02:20:00.000Z,98831
2018-01-22T02:25:00.000Z,98822
2018-01-22T02:30:00.000Z,98842
2018-01-22T02:35:00.000Z,98836
2018-01-22T02:40:00.000Z,98838
2018-01-22T02:45:00.000Z,98826
2018-01-22T02:50:00.000Z,98826
2018-01-22T02:55:00.000Z,98826
2018-01-22T03:01:00.000Z,98801
2018-01-22T03:06:00.000Z,98807
2018-01-22T03:11:00.000Z,98806
2018-01-22T03:16:00.000Z,98813
2018-01-22T03:21:00.000Z,98813
2018-01-22T03:26:00.000Z,98814
2018-01-22T03:31:00.000Z,98833
2018-01-22T03:36:00.000Z,98828
2018-01-22T03:41:00.000Z,98823
2018-01-22T03:46:00.000Z,98829
2018-01-22T03:51:00.000Z,98819
2018-01-22T03:56:00.000Z,98816
2018-01-22T04:01:00.000Z,98810
2018-01-22T04:06:00.000Z,98801
2018-01-22T04:11:00.000Z,98815
2018-01-22T04:16:00.000Z,98808
2018-01-22T04:21:00.000Z,98810
2018-01-22T04:26:00.000Z,98814
2018-01-22T04:31:00.000Z,98797
2018-01-22T04:36:00.000Z,98799
2018-01-22T04:41:00.000Z,98780
2018-01-22T04:46:00.000Z,98778
2018-01-22T04:51:00.000Z,98760
2018-01-22T04:56:00.000Z,98753
2018-01-22T05:01:00.000Z,98757
2018-01-22T05:06:00.000Z,98741
2018-01-22T05:11:00.000Z,98722
2018-01-22T05:16:00.000Z,98703
2018-01-22T05:21:00.000Z,98698
2018-01-22T05:26:00.000Z,98720
2018-01-22T05:31:00.000Z,98709
2018-01-22T05:36:00.000Z,98702
2018-01-22T05:41:00.000Z,98702
2018-01-22T05:46:00.000Z,98703
2018-01-22T05:51:00.000Z,98696
2018-01-22T05:56:00.000Z,98698
2018-01-22T06:01:00.000Z,98696
2018-01-22T06:06:00.000Z,98698
2018-01-22T06:11:00.000Z,98691
2018-01-22T06:16:00.000Z,98687
2018-01-22T06:21:00.000Z,98691
2018-01-22T06:26:00.000Z,98672
2018-01-22T06:31:00.000Z,98673
2018-01-22T06:36:00.000Z,98672
2018-01-22T06:41:00.000Z,98672
2018-01-22T06:46:00.000Z,98667
2018-01-22T06:51:00.000Z,98663
2018-01-22T06:56:00.000Z,98672
2018-01-22T07:01:00.000Z,98681
2018-01-22T07:06:00.000Z,98684
2018-01-22T07:11:00.000Z,98689
2018-01-22T07:16:00.000Z,98684
2018-01-22T07:21:00.000Z,98691
2018-01-22T07:26:00.000Z,98680
2018-01-22T07:31:00.000Z,98671
2018-01-22T07:36:00.000Z,98654
2018-01-22T07:41:00.000Z,98657
2018-01-22T07:46:00.000Z,98659
2018-01-22T07:51:00.000Z,98654
2018-01-22T07:56:00.000Z,98655
2018-01-22T08:01:00.000Z,98646
2018-01-22T08:06:00.000Z,98665
2018-01-22T08:11:00.000Z,98676
2018-01-22T08:16:00.000Z,98673
2018-01-22T08:21:00.000Z,98677
2018-01-22T08:26:00.000Z,98670
2018-01-22T08:31:00.000Z,98651
2018-01-22T08:36:00.000Z,98692
2018-01-22T08:41:00.000Z,98684
2018-01-22T08:46:00.000Z,98673
2018-01-22T08:51:00.000Z,98671
2018-01-22T08:56:00.000Z,98663
2018-01-22T09:01:00.000Z,98669
2018-01-22T09:07:00.000Z,98645
2018-01-22T09:12:00.000Z,98646
2018-01-22T09:17:00.000Z,98638
2018-01-22T09:22:00.000Z,98642
2018-01-22T09:27:00.000Z,98630
2018-01-22T09:32:00.000Z,98623
2018-01-22T09:37:00.000Z,98615
2018-01-22T09:42:00.000Z,98602
2018-01-22T09:47:00.000Z,98599
2018-01-22T09:52:00.000Z,98606
2018-01-22T09:57:00.000Z,98593
2018-01-22T10:02:00.000Z,98576
2018-01-22T10:07:00.000Z,98582
2018-01-22T10:12:00.000Z,98579
2018-01-22T10:17:00.000Z,98601
2018-01-22T10:22:00.000Z,98592
2018-01-22T10:27:00.000Z,98590
2018-01-22T10:32:00.000Z,98574
2018-01-22T10:37:00.000Z,98556
2018-01-22T10:42:00.000Z,98545
2018-01-22T10:47:00.000Z,98542
2018-01-22T10:52:00.000Z,98538
2018-01-22T10:57:00.000Z,98530
2018-01-22T11:02:00.000Z,98514
2018-01-22T11:07:00.000Z,98508
2018-01-22T11:12:00.000Z,98516
2018-01-22T11:17:00.000Z,98522
2018-01-22T11:22:00.000Z,98506
2018-01-22T11:27:00.000Z,98499
2018-01-22T11:32:00.000Z,98500
2018-01-22T11:37:00.000Z,98485
2018-01-22T11:42:00.000Z,98466
2018-01-22T11:47:00.000Z,98452
2018-01-22T11:52:00.000Z,98452
2018-01-22T11:57:00.000Z,98438
2018-01-22T12:02:00.000Z,98440
2018-01-22T12:07:00.000Z,98447
2018-01-22T12:12:00.000Z,98433
2018-01-22T12:17:00.000Z,98410
2018-01-22T12:22:00.000Z,98411
2018-01-22T12:27:00.000Z,98408
2018-01-22T12:32:00.000Z,98414
2018-01-22T12:37:00.000Z,98403
2018-01-22T12:42:00.000Z,98384
2018-01-22T12:47:00.000Z,98367
2018-01-22T12:52:00.000Z,98348
2018-01-22T12:57:00.000Z,98341
2018-01-22T13:02:00.000Z,98339
2018-01-22T13:07:00.000Z,98336
2018-01-22T13:12:00.000Z,98340
2018-01-22T13:17:00.000Z,98328
2018-01-22T13:22:00.000Z,98331
2018-01-22T13:27:00.000Z,98352
2018-01-22T13:32:00.000Z,98349
2018-01-22T13:37:00.000Z,98347
2018-01-22T13:42:00.000Z,98341
2018-01-22T13:47:00.000Z,98351
2018-01-22T13:52:00.000Z,98343
2018-01-22T13:57:00.000Z,98329
2018-01-22T14:02:00.000Z,98341
2018-01-22T14:07:00.000Z,98337
2018-01-22T14:12:00.000Z,98329
2018-01-22T14:17:00.000Z,98340
2018-01-22T14:22:00.000Z,98351
2018-01-22T14:27:00.000Z,98344
2018-01-22T14:32:00.000Z,98335
2018-01-22T14:37:00.000Z,98330
2018-01-22T14:43:00.000Z,98338
2018-01-22T14:48:00.000Z,98343
2018-01-22T14:53:00.000Z,98341
2018-01-22T14:58:00.000Z,98346
2018-01-22T15:03:00.000Z,98346
2018-01-22T15:08:00.000Z,98338
2018-01-22T15:13:00.000Z,98333
2018-01-22T15:18:00.000Z,98338
2018-01-22T15:23:00.000Z,98325
2018-01-22T15:28:00.000Z,98334
2018-01-22T15:33:00.000Z,98321
2018-01-22T15:38:00.000Z,98323
2018-01-22T15:43:00.000Z,98333
2018-01-22T15:48:00.000Z,98332
2018-01-22T15:53:00.000Z,98342
2018-01-22T15:58:00.000Z,98334
2018-01-22T16:03:00.000Z,98330
2018-01-22T16:08:00.000Z,98341
2018-01-22T16:13:00.000Z,98343
2018-01-22T16:18:00.000Z,98332
2018-01-22T16:23:00.000Z,98330
2018-01-22T16:28:00.000Z,98320
2018-01-22T16:33:00.000Z,98340
2018-01-22T16:38:00.000Z,98335
2018-01-22T16:43:00.000Z,98340
2018-01-22T16:48:00.000Z,98350
2018-01-22T16:53:00.000Z,98335
2018-01-22T16:58:00.000Z,98338
2018-01-22T17:03:00.000Z,98339
2018-01-22T17:08:00.000Z,98339
2018-01-22T17:13:00.000Z,98342
2018-01-22T17:18:00.000Z,98336
2018-01-22T17:23:00.000Z,98322
2018-01-22T17:28:00.000Z,98340
2018-01-22T17:33:00.000Z,98352
2018-01-22T17:38:00.000Z,98352
2018-01-22T17:43:00.000Z,98367
2018-01-22T17:48:00.000Z,98355
2018-01-22T17:53:00.000Z,98333
2018-01-22T17:58:00.000Z,98345
2018-01-22T18:03:00.000Z,98357
2018-01-22T18:08:00.000Z,98362
2018-01-22T18:13:00.000Z,98366
2018-01-22T18:18:00.000Z,98370
2018-01-22T18:23:00.000Z,98359
2018-01-22T18:28:00.000Z,98357
2018-01-22T18:33:00.000Z,98372
2018-01-22T18:38:00.000Z,98355
2018-01-22T18:43:00.000Z,98361
2018-01-22T18:48:00.000Z,98386
2018-01-22T18:53:00.000Z,98351
2018-01-22T18:58:00.000Z,98368
2018-01-22T19:03:00.000Z,98378
2018-01-22T19:08:00.000Z,98385
2018-01-22T19:13:00.000Z,98393
2018-01-22T19:18:00.000Z,98387
2018-01-22T19:23:00.000Z,98387
2018-01-22T19:28:00.000Z,98403
2018-01-22T19:33:00.000Z,98389
2018-01-22T19:38:00.000Z,98395
2018-01-22T19:43:00.000Z,98395
2018-01-22T19:48:00.000Z,98384
2018-01-22T19:53:00.000Z,98393
2018-01-22T19:58:00.000Z,98399
2018-01-22T20:03:00.000Z,98406
2018-01-22T20:08:00.000Z,98404
2018-01-22T20:13:00.000Z,98400
2018-01-22T20:18:00.000Z,98426
2018-01-22T20:23:00.000Z,98422
2018-01-22T20:28:00.000Z,98426
2018-01-22T20:33:00.000Z,98404
2018-01-22T20:38:00.000Z,98451
2018-01-22T20:43:00.000Z,98435
2018-01-22T20:48:00.000Z,98441
2018-01-22T20:54:00.000Z,98470
2018-01-22T20:59:00.000Z,98433
2018-01-22T21:04:00.000Z,98436
2018-01-22T21:09:00.000Z,98421
2018-01-22T21:14:00.000Z,98440
2018-01-22T21:19:00.000Z,98444
2018-01-22T21:24:00.000Z,98431
2018-01-22T21:29:00.000Z,98443
2018-01-22T21:34:00.000Z,98438
2018-01-22T21:39:00.000Z,98419
2018-01-22T21:44:00.000Z,98427
2018-01-22T21:49:00.000Z,98440
2018-01-22T21:54:00.000Z,98424
2018-01-22T21:59:00.000Z,98412
2018-01-22T22:04:00.000Z,98432
2018-01-22T22:09:00.000Z,98437
2018-01-22T22:14:00.000Z,98430
2018-01-22T22:19:00.000Z,98430
2018-01-22T22:24:00.000Z,98463
2018-01-22T22:29:00.000Z,98458
2018-01-22T22:34:00.000Z,98467
2018-01-22T22:39:00.000Z,98453
2018-01-22T22:44:00.000Z,98475
2018-01-22T22:49:00.000Z,98480
2018-01-22T22:54:00.000Z,98494
2018-01-22T22:59:00.000Z,98508
2018-01-22T23:04:00.000Z,98493
2018-01-22T23:09:00.000Z,98500
2018-01-22T23:14:00.000Z,98536
2018-01-22T23:19:00.000Z,98529
2018-01-22T23:24:00.000Z,98534
2018-01-22T23:29:00.000Z,98540
2018-01-22T23:34:00.000Z,98546
2018-01-22T23:39:00.000Z,98550
2018-01-22T23:44:00.000Z,98555
2018-01-22T23:49:00.000Z,98580
2018-01-22T23:54:00.000Z,98584
2018-01-22T23:59:00.000Z,98574
